sensor_id;sensor_type;location;lat;lon;timestamp;temperature;humidity
2226;DHT22;1119;48.288;8.726;2023-04-03T00:00:18;1.90;99.90
2226;DHT22;1119;48.288;8.726;2023-04-03T00:03:06;1.90;99.90
2226;DHT22;1119;48.288;8.726;2023-04-03T00:05:54;1.90;99.90
2226;DHT22;1119;48.288;8.726;2023-04-03T00:08:42;1.80;99.90
2226;DHT22;1119;48.288;8.726;2023-04-03T00:11:31;1.80;99.90
2226;DHT22;1119;48.288;8.726;2023-04-03T00:14:19;1.80;99.90
2226;DHT22;1119;48.288;8.726;2023-04-03T00:17:07;1.80;99.90
2226;DHT22;1119;48.288;8.726;2023-04-03T00:19:54;1.90;99.90
2226;DHT22;1119;48.288;8.726;2023-04-03T00:22:42;1.90;99.90
2226;DHT22;1119;48.288;8.726;2023-04-03T00:25:30;1.90;99.90
2226;DHT22;1119;48.288;8.726;2023-04-03T00:28:19;1.90;99.90
2226;DHT22;1119;48.288;8.726;2023-04-03T00:31:07;1.90;99.90
2226;DHT22;1119;48.288;8.726;2023-04-03T00:33:55;1.80;99.90
2226;DHT22;1119;48.288;8.726;2023-04-03T00:36:43;1.80;99.90
2226;DHT22;1119;48.288;8.726;2023-04-03T00:39:30;1.90;99.90
2226;DHT22;1119;48.288;8.726;2023-04-03T00:42:18;1.90;99.90
2226;DHT22;1119;48.288;8.726;2023-04-03T00:45:36;1.80;99.90
2226;DHT22;1119;48.288;8.726;2023-04-03T00:48:28;1.80;99.90
2226;DHT22;1119;48.288;8.726;2023-04-03T00:51:22;1.90;99.90
2226;DHT22;1119;48.288;8.726;2023-04-03T00:54:11;1.80;99.90
2226;DHT22;1119;48.288;8.726;2023-04-03T00:56:59;1.80;99.90
2226;DHT22;1119;48.288;8.726;2023-04-03T00:59:50;1.80;99.90
2226;DHT22;1119;48.288;8.726;2023-04-03T01:02:40;1.80;99.90
2226;DHT22;1119;48.288;8.726;2023-04-03T01:05:30;1.80;99.90
2226;DHT22;1119;48.288;8.726;2023-04-03T01:08:18;1.80;99.90
2226;DHT22;1119;48.288;8.726;2023-04-03T01:11:06;1.80;99.90
2226;DHT22;1119;48.288;8.726;2023-04-03T01:13:54;1.90;99.90
2226;DHT22;1119;48.288;8.726;2023-04-03T01:16:42;2.00;99.90
2226;DHT22;1119;48.288;8.726;2023-04-03T01:19:31;2.00;99.90
2226;DHT22;1119;48.288;8.726;2023-04-03T01:22:25;2.00;99.90
2226;DHT22;1119;48.288;8.726;2023-04-03T01:25:18;2.00;99.90
2226;DHT22;1119;48.288;8.726;2023-04-03T01:28:08;2.10;99.90
2226;DHT22;1119;48.288;8.726;2023-04-03T01:31:02;2.10;99.90
2226;DHT22;1119;48.288;8.726;2023-04-03T01:33:56;2.10;99.90
2226;DHT22;1119;48.288;8.726;2023-04-03T01:36:45;2.10;99.90
2226;DHT22;1119;48.288;8.726;2023-04-03T01:39:32;2.10;99.90
2226;DHT22;1119;48.288;8.726;2023-04-03T01:42:20;2.10;99.90
2226;DHT22;1119;48.288;8.726;2023-04-03T01:45:09;2.10;99.90
2226;DHT22;1119;48.288;8.726;2023-04-03T01:47:57;2.10;99.90
2226;DHT22;1119;48.288;8.726;2023-04-03T01:50:47;2.00;99.90
2226;DHT22;1119;48.288;8.726;2023-04-03T01:53:35;2.00;99.90
2226;DHT22;1119;48.288;8.726;2023-04-03T01:56:23;2.00;99.90
2226;DHT22;1119;48.288;8.726;2023-04-03T01:59:11;1.90;99.90
2226;DHT22;1119;48.288;8.726;2023-04-03T02:01:59;1.90;99.90
2226;DHT22;1119;48.288;8.726;2023-04-03T02:04:47;1.80;99.90
2226;DHT22;1119;48.288;8.726;2023-04-03T02:07:36;1.90;99.90
2226;DHT22;1119;48.288;8.726;2023-04-03T02:10:23;1.80;99.90
2226;DHT22;1119;48.288;8.726;2023-04-03T02:13:11;1.70;99.90
2226;DHT22;1119;48.288;8.726;2023-04-03T02:15:59;1.70;99.90
2226;DHT22;1119;48.288;8.726;2023-04-03T02:18:53;1.70;99.90
2226;DHT22;1119;48.288;8.726;2023-04-03T02:21:41;1.70;99.90
2226;DHT22;1119;48.288;8.726;2023-04-03T02:24:30;1.70;99.90
2226;DHT22;1119;48.288;8.726;2023-04-03T02:27:19;1.60;99.90
2226;DHT22;1119;48.288;8.726;2023-04-03T02:30:08;1.60;99.90
2226;DHT22;1119;48.288;8.726;2023-04-03T02:32:57;1.50;99.90
2226;DHT22;1119;48.288;8.726;2023-04-03T02:35:45;1.50;99.90
2226;DHT22;1119;48.288;8.726;2023-04-03T02:38:40;1.50;99.90
2226;DHT22;1119;48.288;8.726;2023-04-03T02:41:31;1.50;99.90
2226;DHT22;1119;48.288;8.726;2023-04-03T02:44:22;1.50;99.90
2226;DHT22;1119;48.288;8.726;2023-04-03T02:47:10;1.50;99.90
2226;DHT22;1119;48.288;8.726;2023-04-03T02:49:58;1.60;99.90
2226;DHT22;1119;48.288;8.726;2023-04-03T02:52:46;1.60;99.90
2226;DHT22;1119;48.288;8.726;2023-04-03T02:55:33;1.60;99.90
2226;DHT22;1119;48.288;8.726;2023-04-03T02:58:22;1.60;99.90
2226;DHT22;1119;48.288;8.726;2023-04-03T03:01:13;1.70;99.90
2226;DHT22;1119;48.288;8.726;2023-04-03T03:04:01;1.70;99.90
2226;DHT22;1119;48.288;8.726;2023-04-03T03:06:48;1.70;99.90
2226;DHT22;1119;48.288;8.726;2023-04-03T03:09:36;1.70;99.90
2226;DHT22;1119;48.288;8.726;2023-04-03T03:12:24;1.70;99.90
2226;DHT22;1119;48.288;8.726;2023-04-03T03:15:13;1.60;99.90
2226;DHT22;1119;48.288;8.726;2023-04-03T03:18:03;1.60;99.90
2226;DHT22;1119;48.288;8.726;2023-04-03T03:20:51;1.60;99.90
2226;DHT22;1119;48.288;8.726;2023-04-03T03:23:40;1.60;99.90
2226;DHT22;1119;48.288;8.726;2023-04-03T03:26:28;1.60;99.90
2226;DHT22;1119;48.288;8.726;2023-04-03T03:29:16;1.70;99.90
2226;DHT22;1119;48.288;8.726;2023-04-03T03:32:06;1.70;99.90
2226;DHT22;1119;48.288;8.726;2023-04-03T03:34:54;1.70;99.90
2226;DHT22;1119;48.288;8.726;2023-04-03T03:37:42;1.60;99.90
2226;DHT22;1119;48.288;8.726;2023-04-03T03:40:30;1.60;99.90
2226;DHT22;1119;48.288;8.726;2023-04-03T03:43:18;1.60;99.90
2226;DHT22;1119;48.288;8.726;2023-04-03T03:46:07;1.50;99.90
2226;DHT22;1119;48.288;8.726;2023-04-03T03:48:56;1.50;99.90
2226;DHT22;1119;48.288;8.726;2023-04-03T03:51:44;1.50;99.90
2226;DHT22;1119;48.288;8.726;2023-04-03T03:54:32;1.50;99.90
2226;DHT22;1119;48.288;8.726;2023-04-03T03:57:19;1.60;99.90
2226;DHT22;1119;48.288;8.726;2023-04-03T04:00:08;1.60;99.90
2226;DHT22;1119;48.288;8.726;2023-04-03T04:03:07;1.50;99.90
2226;DHT22;1119;48.288;8.726;2023-04-03T04:05:56;1.50;99.90
2226;DHT22;1119;48.288;8.726;2023-04-03T04:08:44;1.50;99.90
2226;DHT22;1119;48.288;8.726;2023-04-03T04:11:33;1.50;99.90
2226;DHT22;1119;48.288;8.726;2023-04-03T04:14:21;1.40;99.90
2226;DHT22;1119;48.288;8.726;2023-04-03T04:17:11;1.40;99.90
2226;DHT22;1119;48.288;8.726;2023-04-03T04:19:58;1.40;99.90
2226;DHT22;1119;48.288;8.726;2023-04-03T04:22:47;1.50;99.90
2226;DHT22;1119;48.288;8.726;2023-04-03T04:25:36;1.50;99.90
2226;DHT22;1119;48.288;8.726;2023-04-03T04:28:25;1.50;99.90
2226;DHT22;1119;48.288;8.726;2023-04-03T04:31:15;1.50;99.90
2226;DHT22;1119;48.288;8.726;2023-04-03T04:34:02;1.40;99.90
2226;DHT22;1119;48.288;8.726;2023-04-03T04:36:50;1.40;99.90
2226;DHT22;1119;48.288;8.726;2023-04-03T04:39:39;1.40;99.90
2226;DHT22;1119;48.288;8.726;2023-04-03T04:42:27;1.50;99.90
2226;DHT22;1119;48.288;8.726;2023-04-03T04:45:15;1.40;99.90
2226;DHT22;1119;48.288;8.726;2023-04-03T04:48:05;1.40;99.90
2226;DHT22;1119;48.288;8.726;2023-04-03T04:50:53;1.40;99.90
2226;DHT22;1119;48.288;8.726;2023-04-03T04:53:41;1.40;99.90
2226;DHT22;1119;48.288;8.726;2023-04-03T04:56:33;1.50;99.90
2226;DHT22;1119;48.288;8.726;2023-04-03T04:59:21;1.40;99.90
2226;DHT22;1119;48.288;8.726;2023-04-03T05:02:10;1.40;99.90
2226;DHT22;1119;48.288;8.726;2023-04-03T05:05:00;1.40;99.90
2226;DHT22;1119;48.288;8.726;2023-04-03T05:07:49;1.40;99.90
2226;DHT22;1119;48.288;8.726;2023-04-03T05:10:37;1.30;99.90
2226;DHT22;1119;48.288;8.726;2023-04-03T05:13:28;1.30;99.90
2226;DHT22;1119;48.288;8.726;2023-04-03T05:16:16;1.30;99.90
2226;DHT22;1119;48.288;8.726;2023-04-03T05:19:04;1.30;99.90
2226;DHT22;1119;48.288;8.726;2023-04-03T05:21:52;1.30;99.90
2226;DHT22;1119;48.288;8.726;2023-04-03T05:24:40;1.30;99.90
2226;DHT22;1119;48.288;8.726;2023-04-03T05:27:29;1.30;99.90
2226;DHT22;1119;48.288;8.726;2023-04-03T05:30:19;1.30;99.90
2226;DHT22;1119;48.288;8.726;2023-04-03T05:33:07;1.40;99.90
2226;DHT22;1119;48.288;8.726;2023-04-03T05:36:03;1.40;99.90
2226;DHT22;1119;48.288;8.726;2023-04-03T05:38:53;1.40;99.90
2226;DHT22;1119;48.288;8.726;2023-04-03T05:41:42;1.40;99.90
2226;DHT22;1119;48.288;8.726;2023-04-03T05:44:30;1.40;99.90
2226;DHT22;1119;48.288;8.726;2023-04-03T05:47:19;1.40;99.90
2226;DHT22;1119;48.288;8.726;2023-04-03T05:50:08;1.40;99.90
2226;DHT22;1119;48.288;8.726;2023-04-03T05:52:57;1.40;99.90
2226;DHT22;1119;48.288;8.726;2023-04-03T05:55:48;1.40;99.90
2226;DHT22;1119;48.288;8.726;2023-04-03T05:58:37;1.40;99.90
2226;DHT22;1119;48.288;8.726;2023-04-03T06:01:24;1.40;99.90
2226;DHT22;1119;48.288;8.726;2023-04-03T06:04:14;1.40;99.90
2226;DHT22;1119;48.288;8.726;2023-04-03T06:07:02;1.50;99.90
2226;DHT22;1119;48.288;8.726;2023-04-03T06:09:50;1.50;99.90
2226;DHT22;1119;48.288;8.726;2023-04-03T06:12:38;1.60;99.90
2226;DHT22;1119;48.288;8.726;2023-04-03T06:15:27;1.60;99.90
2226;DHT22;1119;48.288;8.726;2023-04-03T06:18:15;1.60;99.90
2226;DHT22;1119;48.288;8.726;2023-04-03T06:21:04;1.60;99.90
2226;DHT22;1119;48.288;8.726;2023-04-03T06:23:53;1.60;99.90
2226;DHT22;1119;48.288;8.726;2023-04-03T06:26:41;1.70;99.90
2226;DHT22;1119;48.288;8.726;2023-04-03T06:29:29;1.60;99.90
2226;DHT22;1119;48.288;8.726;2023-04-03T06:32:17;1.70;99.90
2226;DHT22;1119;48.288;8.726;2023-04-03T06:35:05;1.70;99.90
2226;DHT22;1119;48.288;8.726;2023-04-03T06:37:56;1.60;99.90
2226;DHT22;1119;48.288;8.726;2023-04-03T06:40:43;1.60;99.90
2226;DHT22;1119;48.288;8.726;2023-04-03T06:43:32;1.70;99.90
2226;DHT22;1119;48.288;8.726;2023-04-03T06:46:21;1.80;99.90
2226;DHT22;1119;48.288;8.726;2023-04-03T06:49:09;1.70;99.90
2226;DHT22;1119;48.288;8.726;2023-04-03T06:51:57;1.80;99.90
2226;DHT22;1119;48.288;8.726;2023-04-03T06:54:46;1.80;99.90
2226;DHT22;1119;48.288;8.726;2023-04-03T06:57:34;1.90;99.90
2226;DHT22;1119;48.288;8.726;2023-04-03T07:00:22;1.90;99.90
2226;DHT22;1119;48.288;8.726;2023-04-03T07:03:10;1.90;99.90
2226;DHT22;1119;48.288;8.726;2023-04-03T07:05:58;1.90;99.90
2226;DHT22;1119;48.288;8.726;2023-04-03T07:08:46;2.00;99.90
2226;DHT22;1119;48.288;8.726;2023-04-03T07:11:35;2.00;99.90
2226;DHT22;1119;48.288;8.726;2023-04-03T07:14:23;2.00;99.90
2226;DHT22;1119;48.288;8.726;2023-04-03T07:17:11;2.00;99.90
2226;DHT22;1119;48.288;8.726;2023-04-03T07:19:58;2.10;99.90
2226;DHT22;1119;48.288;8.726;2023-04-03T07:22:51;2.10;99.90
2226;DHT22;1119;48.288;8.726;2023-04-03T07:25:42;2.10;99.90
2226;DHT22;1119;48.288;8.726;2023-04-03T07:28:32;2.20;99.90
2226;DHT22;1119;48.288;8.726;2023-04-03T07:31:19;2.40;99.90
2226;DHT22;1119;48.288;8.726;2023-04-03T07:34:07;2.50;99.90
2226;DHT22;1119;48.288;8.726;2023-04-03T07:36:55;2.50;99.90
2226;DHT22;1119;48.288;8.726;2023-04-03T07:39:43;2.50;98.50
2226;DHT22;1119;48.288;8.726;2023-04-03T07:42:31;2.60;98.80
2226;DHT22;1119;48.288;8.726;2023-04-03T07:45:20;2.70;98.30
2226;DHT22;1119;48.288;8.726;2023-04-03T07:48:09;2.70;97.50
2226;DHT22;1119;48.288;8.726;2023-04-03T07:50:59;2.80;98.10
2226;DHT22;1119;48.288;8.726;2023-04-03T07:53:47;2.80;97.80
2226;DHT22;1119;48.288;8.726;2023-04-03T07:56:35;2.80;97.50
2226;DHT22;1119;48.288;8.726;2023-04-03T07:59:23;2.80;96.60
2226;DHT22;1119;48.288;8.726;2023-04-03T08:02:12;2.80;96.70
2226;DHT22;1119;48.288;8.726;2023-04-03T08:05:00;2.80;97.80
2226;DHT22;1119;48.288;8.726;2023-04-03T08:07:48;2.90;97.40
2226;DHT22;1119;48.288;8.726;2023-04-03T08:10:36;2.90;97.40
2226;DHT22;1119;48.288;8.726;2023-04-03T08:13:24;2.90;97.00
2226;DHT22;1119;48.288;8.726;2023-04-03T08:16:13;2.90;99.00
2226;DHT22;1119;48.288;8.726;2023-04-03T08:19:05;3.00;98.10
2226;DHT22;1119;48.288;8.726;2023-04-03T08:21:53;2.90;99.30
2226;DHT22;1119;48.288;8.726;2023-04-03T08:24:41;3.00;99.90
2226;DHT22;1119;48.288;8.726;2023-04-03T08:27:29;3.00;99.30
2226;DHT22;1119;48.288;8.726;2023-04-03T08:30:17;2.80;98.30
2226;DHT22;1119;48.288;8.726;2023-04-03T08:33:04;2.70;98.00
2226;DHT22;1119;48.288;8.726;2023-04-03T08:35:53;2.80;99.30
2226;DHT22;1119;48.288;8.726;2023-04-03T08:38:41;2.90;98.50
2226;DHT22;1119;48.288;8.726;2023-04-03T08:41:33;2.90;99.00
2226;DHT22;1119;48.288;8.726;2023-04-03T08:44:25;3.00;98.40
2226;DHT22;1119;48.288;8.726;2023-04-03T08:47:24;2.90;98.20
2226;DHT22;1119;48.288;8.726;2023-04-03T08:50:15;2.90;98.60
2226;DHT22;1119;48.288;8.726;2023-04-03T08:53:13;2.80;97.90
2226;DHT22;1119;48.288;8.726;2023-04-03T08:56:07;2.80;97.50
2226;DHT22;1119;48.288;8.726;2023-04-03T08:58:59;2.90;98.50
2226;DHT22;1119;48.288;8.726;2023-04-03T09:01:48;3.00;99.10
2226;DHT22;1119;48.288;8.726;2023-04-03T09:04:38;3.10;98.60
2226;DHT22;1119;48.288;8.726;2023-04-03T09:07:33;3.10;98.40
2226;DHT22;1119;48.288;8.726;2023-04-03T09:10:28;3.20;97.70
2226;DHT22;1119;48.288;8.726;2023-04-03T09:13:26;3.20;98.00
2226;DHT22;1119;48.288;8.726;2023-04-03T09:16:30;3.20;98.50
2226;DHT22;1119;48.288;8.726;2023-04-03T09:19:32;3.40;97.80
2226;DHT22;1119;48.288;8.726;2023-04-03T09:22:24;3.40;96.80
2226;DHT22;1119;48.288;8.726;2023-04-03T09:25:15;3.50;98.00
2226;DHT22;1119;48.288;8.726;2023-04-03T09:28:05;3.60;98.10
2226;DHT22;1119;48.288;8.726;2023-04-03T09:30:55;3.70;97.90
2226;DHT22;1119;48.288;8.726;2023-04-03T09:33:43;3.70;97.90
2226;DHT22;1119;48.288;8.726;2023-04-03T09:36:43;3.60;97.30
2226;DHT22;1119;48.288;8.726;2023-04-03T09:39:32;3.60;97.10
2226;DHT22;1119;48.288;8.726;2023-04-03T09:42:40;3.60;97.60
2226;DHT22;1119;48.288;8.726;2023-04-03T09:45:32;3.60;97.40
2226;DHT22;1119;48.288;8.726;2023-04-03T09:48:22;3.50;98.00
2226;DHT22;1119;48.288;8.726;2023-04-03T09:51:15;3.50;97.70
2226;DHT22;1119;48.288;8.726;2023-04-03T09:54:24;3.50;97.20
2226;DHT22;1119;48.288;8.726;2023-04-03T09:57:17;3.60;97.80
2226;DHT22;1119;48.288;8.726;2023-04-03T10:00:06;3.80;99.00
2226;DHT22;1119;48.288;8.726;2023-04-03T10:03:02;3.70;98.20
2226;DHT22;1119;48.288;8.726;2023-04-03T10:05:50;3.50;97.90
2226;DHT22;1119;48.288;8.726;2023-04-03T10:08:40;3.60;99.00
2226;DHT22;1119;48.288;8.726;2023-04-03T10:11:28;3.60;97.20
2226;DHT22;1119;48.288;8.726;2023-04-03T10:14:17;3.60;97.60
2226;DHT22;1119;48.288;8.726;2023-04-03T10:17:17;3.60;97.30
2226;DHT22;1119;48.288;8.726;2023-04-03T10:20:19;3.70;96.90
2226;DHT22;1119;48.288;8.726;2023-04-03T10:23:20;3.70;96.70
2226;DHT22;1119;48.288;8.726;2023-04-03T10:26:15;3.80;96.80
2226;DHT22;1119;48.288;8.726;2023-04-03T10:32:20;3.90;96.60
2226;DHT22;1119;48.288;8.726;2023-04-03T10:35:23;3.90;96.80
2226;DHT22;1119;48.288;8.726;2023-04-03T10:38:22;4.00;97.00
2226;DHT22;1119;48.288;8.726;2023-04-03T10:41:20;4.10;96.10
2226;DHT22;1119;48.288;8.726;2023-04-03T10:44:18;4.10;96.60
2226;DHT22;1119;48.288;8.726;2023-04-03T10:47:12;4.20;96.70
2226;DHT22;1119;48.288;8.726;2023-04-03T10:50:15;4.40;97.50
2226;DHT22;1119;48.288;8.726;2023-04-03T10:53:20;4.40;96.10
2226;DHT22;1119;48.288;8.726;2023-04-03T10:56:17;4.50;95.80
2226;DHT22;1119;48.288;8.726;2023-04-03T10:59:19;4.40;94.70
2226;DHT22;1119;48.288;8.726;2023-04-03T11:02:16;4.40;95.30
2226;DHT22;1119;48.288;8.726;2023-04-03T11:05:08;4.00;95.20
2226;DHT22;1119;48.288;8.726;2023-04-03T11:08:08;4.30;95.80
2226;DHT22;1119;48.288;8.726;2023-04-03T11:11:02;4.30;94.80
2226;DHT22;1119;48.288;8.726;2023-04-03T11:13:56;4.20;94.60
2226;DHT22;1119;48.288;8.726;2023-04-03T11:16:51;4.20;94.70
2226;DHT22;1119;48.288;8.726;2023-04-03T11:19:46;4.20;94.40
2226;DHT22;1119;48.288;8.726;2023-04-03T11:22:40;4.20;93.60
2226;DHT22;1119;48.288;8.726;2023-04-03T11:25:32;4.30;94.10
2226;DHT22;1119;48.288;8.726;2023-04-03T11:28:20;4.40;95.10
2226;DHT22;1119;48.288;8.726;2023-04-03T11:31:19;4.40;94.80
2226;DHT22;1119;48.288;8.726;2023-04-03T11:34:25;4.40;95.00
2226;DHT22;1119;48.288;8.726;2023-04-03T11:37:23;4.40;93.80
2226;DHT22;1119;48.288;8.726;2023-04-03T11:40:22;4.40;94.10
2226;DHT22;1119;48.288;8.726;2023-04-03T11:43:22;4.40;94.20
2226;DHT22;1119;48.288;8.726;2023-04-03T11:46:12;4.20;94.40
2226;DHT22;1119;48.288;8.726;2023-04-03T11:48:59;4.20;94.60
2226;DHT22;1119;48.288;8.726;2023-04-03T11:51:47;4.10;94.60
2226;DHT22;1119;48.288;8.726;2023-04-03T11:54:47;4.00;94.20
2226;DHT22;1119;48.288;8.726;2023-04-03T11:58:03;3.90;94.00
2226;DHT22;1119;48.288;8.726;2023-04-03T12:01:03;3.90;94.20
2226;DHT22;1119;48.288;8.726;2023-04-03T12:04:08;4.00;94.70
2226;DHT22;1119;48.288;8.726;2023-04-03T12:07:20;4.10;94.30
2226;DHT22;1119;48.288;8.726;2023-04-03T12:10:17;4.20;94.70
2226;DHT22;1119;48.288;8.726;2023-04-03T12:13:14;4.20;94.50
2226;DHT22;1119;48.288;8.726;2023-04-03T12:16:05;4.30;93.50
2226;DHT22;1119;48.288;8.726;2023-04-03T12:18:59;4.30;93.30
2226;DHT22;1119;48.288;8.726;2023-04-03T12:22:09;4.20;93.30
2226;DHT22;1119;48.288;8.726;2023-04-03T12:28:37;4.20;93.20
2226;DHT22;1119;48.288;8.726;2023-04-03T12:31:42;4.30;92.80
2226;DHT22;1119;48.288;8.726;2023-04-03T12:34:58;4.40;92.70
2226;DHT22;1119;48.288;8.726;2023-04-03T12:38:17;4.30;91.70
2226;DHT22;1119;48.288;8.726;2023-04-03T12:41:28;4.30;92.30
2226;DHT22;1119;48.288;8.726;2023-04-03T12:44:38;4.40;91.90
2226;DHT22;1119;48.288;8.726;2023-04-03T12:47:33;4.30;91.50
2226;DHT22;1119;48.288;8.726;2023-04-03T12:50:28;4.20;91.30
2226;DHT22;1119;48.288;8.726;2023-04-03T12:53:19;4.30;91.10
2226;DHT22;1119;48.288;8.726;2023-04-03T12:56:20;4.20;90.80
2226;DHT22;1119;48.288;8.726;2023-04-03T12:59:15;4.20;90.60
2226;DHT22;1119;48.288;8.726;2023-04-03T13:02:15;4.20;91.10
2226;DHT22;1119;48.288;8.726;2023-04-03T13:05:14;4.20;90.70
2226;DHT22;1119;48.288;8.726;2023-04-03T13:08:07;4.20;90.90
2226;DHT22;1119;48.288;8.726;2023-04-03T13:11:01;4.20;91.20
2226;DHT22;1119;48.288;8.726;2023-04-03T13:13:55;4.30;91.90
2226;DHT22;1119;48.288;8.726;2023-04-03T13:16:53;4.30;91.10
2226;DHT22;1119;48.288;8.726;2023-04-03T13:19:42;4.30;90.20
2226;DHT22;1119;48.288;8.726;2023-04-03T13:22:35;4.30;90.60
2226;DHT22;1119;48.288;8.726;2023-04-03T13:25:29;4.30;90.20
2226;DHT22;1119;48.288;8.726;2023-04-03T13:28:22;4.30;91.40
2226;DHT22;1119;48.288;8.726;2023-04-03T13:31:19;4.40;90.80
2226;DHT22;1119;48.288;8.726;2023-04-03T13:34:12;4.60;91.50
2226;DHT22;1119;48.288;8.726;2023-04-03T13:37:01;4.80;91.60
2226;DHT22;1119;48.288;8.726;2023-04-03T13:40:00;4.90;90.40
2226;DHT22;1119;48.288;8.726;2023-04-03T13:43:03;4.70;87.60
2226;DHT22;1119;48.288;8.726;2023-04-03T13:46:01;4.60;89.00
2226;DHT22;1119;48.288;8.726;2023-04-03T13:48:54;4.50;89.00
2226;DHT22;1119;48.288;8.726;2023-04-03T13:51:42;4.50;89.50
2226;DHT22;1119;48.288;8.726;2023-04-03T13:54:33;4.40;90.00
2226;DHT22;1119;48.288;8.726;2023-04-03T13:57:24;4.30;89.20
2226;DHT22;1119;48.288;8.726;2023-04-03T14:00:37;4.10;88.80
2226;DHT22;1119;48.288;8.726;2023-04-03T14:03:30;4.20;90.00
2226;DHT22;1119;48.288;8.726;2023-04-03T14:06:24;4.20;88.40
2226;DHT22;1119;48.288;8.726;2023-04-03T14:09:13;4.20;88.90
2226;DHT22;1119;48.288;8.726;2023-04-03T14:12:06;4.20;88.20
2226;DHT22;1119;48.288;8.726;2023-04-03T14:14:58;4.30;89.90
2226;DHT22;1119;48.288;8.726;2023-04-03T14:17:46;4.40;90.30
2226;DHT22;1119;48.288;8.726;2023-04-03T14:20:33;4.50;90.20
2226;DHT22;1119;48.288;8.726;2023-04-03T14:23:21;4.50;89.10
2226;DHT22;1119;48.288;8.726;2023-04-03T14:28:59;4.40;89.50
2226;DHT22;1119;48.288;8.726;2023-04-03T14:31:49;4.30;89.00
2226;DHT22;1119;48.288;8.726;2023-04-03T14:34:37;4.20;89.20
2226;DHT22;1119;48.288;8.726;2023-04-03T14:37:27;4.10;88.00
2226;DHT22;1119;48.288;8.726;2023-04-03T14:40:19;4.10;88.30
2226;DHT22;1119;48.288;8.726;2023-04-03T14:43:10;4.10;88.40
2226;DHT22;1119;48.288;8.726;2023-04-03T14:45:59;4.20;90.00
2226;DHT22;1119;48.288;8.726;2023-04-03T14:48:48;4.20;88.70
2226;DHT22;1119;48.288;8.726;2023-04-03T14:51:36;4.20;90.40
2226;DHT22;1119;48.288;8.726;2023-04-03T14:54:24;4.20;88.80
2226;DHT22;1119;48.288;8.726;2023-04-03T14:57:14;4.20;89.80
2226;DHT22;1119;48.288;8.726;2023-04-03T15:00:04;4.20;88.70
2226;DHT22;1119;48.288;8.726;2023-04-03T15:02:54;4.20;89.20
2226;DHT22;1119;48.288;8.726;2023-04-03T15:05:44;4.10;86.90
2226;DHT22;1119;48.288;8.726;2023-04-03T15:08:32;4.10;88.50
2226;DHT22;1119;48.288;8.726;2023-04-03T15:11:20;4.10;87.80
2226;DHT22;1119;48.288;8.726;2023-04-03T15:14:09;4.10;89.10
2226;DHT22;1119;48.288;8.726;2023-04-03T15:16:56;4.10;90.00
2226;DHT22;1119;48.288;8.726;2023-04-03T15:19:44;4.20;87.90
2226;DHT22;1119;48.288;8.726;2023-04-03T15:22:33;4.30;88.80
2226;DHT22;1119;48.288;8.726;2023-04-03T15:25:20;4.40;88.70
2226;DHT22;1119;48.288;8.726;2023-04-03T15:28:09;4.40;89.20
2226;DHT22;1119;48.288;8.726;2023-04-03T15:31:04;4.40;85.50
2226;DHT22;1119;48.288;8.726;2023-04-03T15:33:52;4.30;85.30
2226;DHT22;1119;48.288;8.726;2023-04-03T15:36:39;4.40;86.20
2226;DHT22;1119;48.288;8.726;2023-04-03T15:39:28;4.40;84.40
2226;DHT22;1119;48.288;8.726;2023-04-03T15:42:16;4.30;83.80
2226;DHT22;1119;48.288;8.726;2023-04-03T15:45:04;4.20;85.00
2226;DHT22;1119;48.288;8.726;2023-04-03T15:47:53;4.20;87.20
2226;DHT22;1119;48.288;8.726;2023-04-03T15:50:41;4.20;84.50
2226;DHT22;1119;48.288;8.726;2023-04-03T15:53:29;4.20;85.20
2226;DHT22;1119;48.288;8.726;2023-04-03T15:56:17;4.20;85.00
2226;DHT22;1119;48.288;8.726;2023-04-03T15:59:05;4.20;85.40
2226;DHT22;1119;48.288;8.726;2023-04-03T16:01:53;4.20;86.40
2226;DHT22;1119;48.288;8.726;2023-04-03T16:04:41;4.20;85.50
2226;DHT22;1119;48.288;8.726;2023-04-03T16:07:28;4.20;84.50
2226;DHT22;1119;48.288;8.726;2023-04-03T16:10:17;4.10;84.90
2226;DHT22;1119;48.288;8.726;2023-04-03T16:13:07;4.10;87.70
2226;DHT22;1119;48.288;8.726;2023-04-03T16:15:55;4.20;85.50
2226;DHT22;1119;48.288;8.726;2023-04-03T16:18:42;4.10;84.60
2226;DHT22;1119;48.288;8.726;2023-04-03T16:21:31;4.10;84.30
2226;DHT22;1119;48.288;8.726;2023-04-03T16:24:19;4.20;86.20
2226;DHT22;1119;48.288;8.726;2023-04-03T16:27:07;4.20;84.40
2226;DHT22;1119;48.288;8.726;2023-04-03T16:29:56;4.10;82.50
2226;DHT22;1119;48.288;8.726;2023-04-03T16:32:44;4.10;84.60
2226;DHT22;1119;48.288;8.726;2023-04-03T16:35:32;4.20;83.70
2226;DHT22;1119;48.288;8.726;2023-04-03T16:38:19;4.10;84.70
2226;DHT22;1119;48.288;8.726;2023-04-03T16:41:08;4.10;84.00
2226;DHT22;1119;48.288;8.726;2023-04-03T16:43:55;4.10;82.10
2226;DHT22;1119;48.288;8.726;2023-04-03T16:46:45;4.00;82.20
2226;DHT22;1119;48.288;8.726;2023-04-03T16:49:32;4.00;81.90
2226;DHT22;1119;48.288;8.726;2023-04-03T16:52:20;4.00;82.30
2226;DHT22;1119;48.288;8.726;2023-04-03T16:55:08;4.00;81.50
2226;DHT22;1119;48.288;8.726;2023-04-03T16:57:56;4.00;82.80
2226;DHT22;1119;48.288;8.726;2023-04-03T17:00:43;4.00;83.40
2226;DHT22;1119;48.288;8.726;2023-04-03T17:03:34;4.10;83.30
2226;DHT22;1119;48.288;8.726;2023-04-03T17:06:22;4.10;82.30
2226;DHT22;1119;48.288;8.726;2023-04-03T17:09:10;4.10;84.00
2226;DHT22;1119;48.288;8.726;2023-04-03T17:11:58;4.00;83.50
2226;DHT22;1119;48.288;8.726;2023-04-03T17:14:45;4.00;83.50
2226;DHT22;1119;48.288;8.726;2023-04-03T17:17:34;3.90;82.50
2226;DHT22;1119;48.288;8.726;2023-04-03T17:20:23;3.80;82.70
2226;DHT22;1119;48.288;8.726;2023-04-03T17:23:11;3.80;82.00
2226;DHT22;1119;48.288;8.726;2023-04-03T17:25:59;3.80;82.80
2226;DHT22;1119;48.288;8.726;2023-04-03T17:28:46;3.90;83.50
2226;DHT22;1119;48.288;8.726;2023-04-03T17:31:34;3.80;82.10
2226;DHT22;1119;48.288;8.726;2023-04-03T17:34:23;3.80;82.10
2226;DHT22;1119;48.288;8.726;2023-04-03T17:37:12;3.80;82.40
2226;DHT22;1119;48.288;8.726;2023-04-03T17:40:00;3.70;83.30
2226;DHT22;1119;48.288;8.726;2023-04-03T17:42:47;3.70;82.80
2226;DHT22;1119;48.288;8.726;2023-04-03T17:45:35;3.70;83.40
2226;DHT22;1119;48.288;8.726;2023-04-03T17:48:23;3.70;82.50
2226;DHT22;1119;48.288;8.726;2023-04-03T17:51:14;3.70;82.60
2226;DHT22;1119;48.288;8.726;2023-04-03T17:54:04;3.70;82.10
2226;DHT22;1119;48.288;8.726;2023-04-03T17:56:52;3.70;81.90
2226;DHT22;1119;48.288;8.726;2023-04-03T17:59:40;3.70;82.90
2226;DHT22;1119;48.288;8.726;2023-04-03T18:02:27;3.60;82.90
2226;DHT22;1119;48.288;8.726;2023-04-03T18:05:17;3.60;83.10
2226;DHT22;1119;48.288;8.726;2023-04-03T18:08:06;3.50;83.60
2226;DHT22;1119;48.288;8.726;2023-04-03T18:10:55;3.50;83.60
2226;DHT22;1119;48.288;8.726;2023-04-03T18:13:44;3.40;83.10
2226;DHT22;1119;48.288;8.726;2023-04-03T18:16:33;3.30;83.30
2226;DHT22;1119;48.288;8.726;2023-04-03T18:19:21;3.30;82.10
2226;DHT22;1119;48.288;8.726;2023-04-03T18:22:12;3.30;82.00
2226;DHT22;1119;48.288;8.726;2023-04-03T18:25:01;3.30;82.60
2226;DHT22;1119;48.288;8.726;2023-04-03T18:27:51;3.20;81.40
2226;DHT22;1119;48.288;8.726;2023-04-03T18:30:41;3.20;82.10
2226;DHT22;1119;48.288;8.726;2023-04-03T18:33:29;3.10;82.00
2226;DHT22;1119;48.288;8.726;2023-04-03T18:36:16;3.10;82.30
2226;DHT22;1119;48.288;8.726;2023-04-03T18:39:04;3.00;82.00
2226;DHT22;1119;48.288;8.726;2023-04-03T18:41:52;3.00;82.30
2226;DHT22;1119;48.288;8.726;2023-04-03T18:44:44;2.80;82.80
2226;DHT22;1119;48.288;8.726;2023-04-03T18:47:32;2.70;82.80
2226;DHT22;1119;48.288;8.726;2023-04-03T18:50:22;2.80;82.90
2226;DHT22;1119;48.288;8.726;2023-04-03T18:53:10;2.70;83.00
2226;DHT22;1119;48.288;8.726;2023-04-03T18:55:57;2.80;82.60
2226;DHT22;1119;48.288;8.726;2023-04-03T18:58:45;2.80;82.60
2226;DHT22;1119;48.288;8.726;2023-04-03T19:01:34;2.90;82.50